Los Nietos, California
Current Conditions -  °F | °C
As of 1:53 AM on Sunday 25 Jan 2015 (Local Time) from KFUL Reporting Station
Clear Clear  
Wind Chill: 69°   Ceiling: Unl
Heat Index: 69°   Visibility: 10mi
Dew Point: 18°   Wind: 7mph
Humidity: 14%   Direction: 110°ESE
Pressure: 30.01"   Gusts: NA
Location:  33.9685°N, 118.069°W
Report Text: KFUL 250953Z 11006KT 10SM CLR 21/M08 A3001 RMK AO2 SLP161 T02061078
Loading
Personal Weather Stations






























Interactive Weather Map New forecast layout! Learn more

10-Day Weather Forecast

Advertisements
Track Severe Weather on mobile